Time;durP1;ratioP1;P1;durP2;ratioP2;P2;SDS_P1;SDS_P2;PMS_P1;PMS_P2;Temp;Humidity;BMP_temperature;BMP_pressure;BME280_temperature;BME280_humidity;BME280_pressure;Samples;Min_cycle;Max_cycle;Signal;HPM_P1;HPM_P2
2023/01/14 00:01:27;;;;;;;7.43;1.88;;;14.30;1.00;;;;;;4995727;28;20042;-38
2023/01/14 00:03:54;;;;;;;13.98;2.20;;;14.30;1.00;;;;;;4995466;28;20050;-38
2023/01/14 00:06:32;;;;;;;6.97;1.55;;;14.30;1.00;;;;;;4995433;28;20410;-38
2023/01/14 00:09:01;;;;;;;7.97;0.88;;;14.30;1.00;;;;;;4995699;28;20050;-38
2023/01/14 00:11:46;;;;;;;4.28;1.63;;;14.30;1.00;;;;;;4995573;28;20043;-38
2023/01/14 00:14:18;;;;;;;9.38;1.50;;;14.30;1.00;;;;;;4995192;28;20049;-38
2023/01/14 00:16:45;;;;;;;9.73;2.58;;;14.30;1.00;;;;;;4995375;28;20060;-38
2023/01/14 00:19:12;;;;;;;7.53;2.03;;;14.30;1.00;;;;;;4995500;28;20040;-38
2023/01/14 00:21:40;;;;;;;7.35;1.75;;;14.30;1.00;;;;;;4995300;28;20050;-38
2023/01/14 00:24:08;;;;;;;9.27;2.10;;;14.30;1.00;;;;;;4995109;28;20550;-38
2023/01/14 00:26:35;;;;;;;6.18;1.98;;;14.30;1.00;;;;;;4995159;28;20050;-38
2023/01/14 00:29:01;;;;;;;8.18;1.00;;;14.30;1.00;;;;;;4995305;28;20487;-38
2023/01/14 00:31:29;;;;;;;5.90;1.35;;;14.30;1.00;;;;;;4995272;28;20097;-39
2023/01/14 00:34:01;;;;;;;11.30;1.73;;;14.20;1.00;;;;;;4994935;28;20124;-38
2023/01/14 00:36:28;;;;;;;5.43;1.70;;;14.20;1.00;;;;;;4993778;28;20055;-38
2023/01/14 00:38:55;;;;;;;7.18;2.03;;;14.20;1.00;;;;;;4995042;28;20100;-38
2023/01/14 00:41:24;;;;;;;6.80;1.58;;;14.20;1.00;;;;;;4994967;28;20066;-38
2023/01/14 00:43:53;;;;;;;7.13;2.03;;;14.20;1.00;;;;;;4994687;28;20457;-38
2023/01/14 00:46:23;;;;;;;9.38;1.40;;;14.20;1.00;;;;;;4993543;28;20046;-38
2023/01/14 00:48:50;;;;;;;9.27;1.38;;;14.20;1.00;;;;;;4993676;28;20568;-38
2023/01/14 00:51:18;;;;;;;8.10;1.20;;;14.20;1.00;;;;;;4994790;28;20042;-38
2023/01/14 00:53:45;;;;;;;6.07;1.75;;;14.20;1.00;;;;;;4994515;28;20059;-38
2023/01/14 00:56:17;;;;;;;10.23;1.25;;;14.20;1.00;;;;;;4993661;28;20050;-38
2023/01/14 00:58:44;;;;;;;5.55;1.98;;;14.20;1.00;;;;;;4994620;28;20113;-38
2023/01/14 01:01:11;;;;;;;7.05;1.85;;;14.20;1.00;;;;;;4994646;28;20045;-39
2023/01/14 01:03:41;;;;;;;5.80;1.30;;;14.20;1.00;;;;;;4994450;28;20049;-38
2023/01/14 01:06:09;;;;;;;6.40;1.98;;;14.20;1.00;;;;;;4994258;28;20030;-39
2023/01/14 01:08:35;;;;;;;4.70;1.70;;;14.20;1.00;;;;;;4993354;28;20530;-38
2023/01/14 01:11:02;;;;;;;15.57;1.80;;;14.20;1.00;;;;;;4993166;28;20042;-38
2023/01/14 01:13:30;;;;;;;5.72;1.38;;;14.20;1.00;;;;;;4994281;28;20046;-38
2023/01/14 01:16:03;;;;;;;10.32;2.05;;;14.20;1.00;;;;;;4992964;28;20054;-39
2023/01/14 01:18:30;;;;;;;6.78;1.52;;;14.10;1.00;;;;;;4993050;28;20141;-38
2023/01/14 01:21:06;;;;;;;12.13;1.00;;;14.20;1.00;;;;;;4992872;28;20098;-38
2023/01/14 01:23:40;;;;;;;7.03;1.80;;;14.10;1.00;;;;;;4992755;28;20042;-37
2023/01/14 01:26:11;;;;;;;;;;;14.10;1.00;;;;;;4993224;28;20053;-37
2023/01/14 01:28:37;;;;;;;6.80;1.27;;;14.10;1.00;;;;;;4994201;28;19965;-38
2023/01/14 01:31:08;;;;;;;7.30;1.60;;;14.10;1.00;;;;;;4992647;28;20410;-37
2023/01/14 01:33:35;;;;;;;7.30;1.33;;;14.10;1.00;;;;;;4993769;28;20053;-37
2023/01/14 01:36:17;;;;;;;10.45;2.40;;;14.10;1.00;;;;;;4993894;28;20446;-38
2023/01/14 01:38:45;;;;;;;6.03;1.58;;;14.10;1.00;;;;;;4994132;28;20042;-38
2023/01/14 01:41:15;;;;;;;12.25;2.25;;;14.00;1.00;;;;;;4993878;28;20049;-38
2023/01/14 01:44:00;;;;;;;7.70;2.15;;;14.10;1.00;;;;;;4992181;28;20093;-38
2023/01/14 01:46:28;;;;;;;6.57;2.00;;;14.10;1.00;;;;;;4993470;28;20039;-37
2023/01/14 01:49:00;;;;;;;7.18;1.85;;;14.00;1.00;;;;;;4992508;28;20521;-38
2023/01/14 01:51:30;;;;;;;7.38;1.42;;;14.10;1.00;;;;;;4993715;28;20426;-38
2023/01/14 01:53:59;;;;;;;7.10;1.73;;;14.10;1.00;;;;;;4992019;28;20108;-38
2023/01/14 01:56:33;;;;;;;5.03;1.65;;;14.10;1.00;;;;;;4993499;28;20046;-38
2023/01/14 01:59:05;;;;;;;9.48;2.20;;;14.10;1.00;;;;;;4992324;28;20088;-37
2023/01/14 02:01:32;;;;;;;10.45;2.20;;;14.00;1.00;;;;;;4992213;28;20050;-39
2023/01/14 02:04:01;;;;;;;8.57;3.40;;;14.00;1.00;;;;;;4993196;28;20126;-38
2023/01/14 02:06:28;;;;;;;7.32;1.83;;;14.00;1.00;;;;;;4991642;28;20498;-38
2023/01/14 02:08:56;;;;;;;7.60;1.42;;;14.00;1.00;;;;;;4993371;28;20074;-38
2023/01/14 02:11:39;;;;;;;9.60;1.80;;;14.00;1.00;;;;;;4992062;28;20050;-38
2023/01/14 02:14:06;;;;;;;7.13;1.25;;;14.00;1.00;;;;;;4991886;28;20050;-39
2023/01/14 02:16:55;;;;;;;9.13;2.15;;;14.00;1.00;;;;;;4991838;28;20053;-38
2023/01/14 02:19:37;;;;;;;7.47;1.58;;;14.00;1.00;;;;;;4992001;28;20050;-38
2023/01/14 02:22:28;;;;;;;6.05;1.75;;;14.00;1.00;;;;;;4993114;28;20097;-38
2023/01/14 02:25:10;;;;;;;8.77;1.83;;;14.00;1.00;;;;;;4991722;28;20073;-38
2023/01/14 02:27:57;;;;;;;7.78;1.70;;;14.00;1.00;;;;;;4991758;28;20109;-39
2023/01/14 02:30:48;;;;;;;5.20;1.70;;;14.00;1.00;;;;;;4991839;28;20050;-37
2023/01/14 02:33:31;;;;;;;12.32;1.88;;;14.00;1.00;;;;;;4991343;28;20058;-37
2023/01/14 02:36:12;;;;;;;8.30;1.45;;;14.00;1.00;;;;;;4991615;28;20050;-38
2023/01/14 02:38:46;;;;;;;5.85;1.35;;;14.00;1.00;;;;;;4991629;28;20046;-38
2023/01/14 02:44:25;;;;;;;4.13;1.17;;;14.00;1.00;;;;;;4991297;28;20061;-38
2023/01/14 02:47:02;;;;;;;9.85;2.92;;;13.90;1.00;;;;;;4991424;28;20042;-38
2023/01/14 02:49:35;;;;;;;5.00;1.90;;;13.90;1.00;;;;;;4991524;28;20101;-38
2023/01/14 02:52:07;;;;;;;7.88;2.33;;;13.90;1.00;;;;;;4991362;28;20556;-39
2023/01/14 02:54:35;;;;;;;9.55;1.70;;;13.90;1.00;;;;;;4991093;28;20451;-38
2023/01/14 02:57:17;;;;;;;9.15;1.40;;;13.90;1.00;;;;;;4992493;28;20042;-38
2023/01/14 02:59:57;;;;;;;10.20;2.13;;;13.90;1.00;;;;;;4991405;28;20533;-38
2023/01/14 03:02:54;;;;;;;4.68;1.05;;;13.90;1.00;;;;;;4991099;28;20585;-38
2023/01/14 03:05:40;;;;;;;5.78;1.77;;;13.90;1.00;;;;;;4991274;28;20072;-38
2023/01/14 03:08:22;;;;;;;9.70;1.48;;;13.90;1.00;;;;;;4998222;23;20078;-36
2023/01/14 03:11:00;;;;;;;6.13;1.90;;;13.90;1.00;;;;;;4971448;28;20498;-37
2023/01/14 03:13:51;;;;;;;7.80;1.85;;;13.90;1.00;;;;;;4972794;28;20046;-37
2023/01/14 03:16:45;;;;;;;4.32;0.90;;;13.90;1.00;;;;;;4987940;28;20483;-37
2023/01/14 03:19:20;;;;;;;5.70;1.00;;;13.90;1.00;;;;;;4955491;28;20047;-37
2023/01/14 03:21:52;;;;;;;4.93;1.45;;;13.90;1.00;;;;;;4956499;29;20043;-36
2023/01/14 03:24:22;;;;;;;9.80;1.65;;;13.90;1.00;;;;;;4956123;29;20051;-36
2023/01/14 03:26:52;;;;;;;6.88;1.40;;;13.80;1.00;;;;;;4972387;28;20143;-37
2023/01/14 03:29:26;;;;;;;7.65;1.75;;;13.80;1.00;;;;;;4972414;28;20047;-38
2023/01/14 03:32:04;;;;;;;6.32;1.67;;;13.90;1.00;;;;;;4972454;28;20047;-38
2023/01/14 03:34:43;;;;;;;10.27;1.63;;;13.90;1.00;;;;;;4940629;29;20425;-37
2023/01/14 03:37:13;;;;;;;4.10;1.67;;;13.90;1.00;;;;;;4957404;29;20051;-38
2023/01/14 03:39:43;;;;;;;8.48;1.52;;;13.90;1.00;;;;;;4957425;29;20458;-37
2023/01/14 03:42:29;;;;;;;6.97;1.40;;;13.90;1.00;;;;;;4957103;29;20467;-37
2023/01/14 03:45:17;;;;;;;5.38;1.52;;;13.90;1.00;;;;;;4957353;28;20044;-38
2023/01/14 03:47:45;;;;;;;11.25;1.35;;;13.90;1.00;;;;;;4957285;29;20051;-38
2023/01/14 03:50:18;;;;;;;8.27;1.60;;;13.80;1.00;;;;;;4957179;29;20121;-37
2023/01/14 03:53:10;;;;;;;6.05;1.33;;;13.90;1.00;;;;;;4956924;29;20067;-38
2023/01/14 03:56:03;;;;;;;4.35;1.60;;;13.80;1.00;;;;;;4957254;29;20103;-38
2023/01/14 03:59:01;;;;;;;7.70;2.03;;;13.80;1.00;;;;;;4956820;29;20464;-37
2023/01/14 04:01:32;;;;;;;3.97;0.70;;;13.80;1.00;;;;;;4957000;29;20078;-37
2023/01/14 04:04:01;;;;;;;7.93;1.98;;;13.80;1.00;;;;;;4956744;29;20114;-37
2023/01/14 04:06:28;;;;;;;7.60;0.90;;;13.80;1.00;;;;;;4956936;29;20231;-36
2023/01/14 04:08:56;;;;;;;5.88;1.20;;;13.80;1.00;;;;;;4956776;29;20039;-37
2023/01/14 04:11:23;;;;;;;8.02;1.90;;;13.80;1.00;;;;;;4956703;29;20047;-36
2023/01/14 04:16:35;;;;;;;6.35;1.33;;;13.80;1.00;;;;;;4955088;29;20094;-37
2023/01/14 04:19:02;;;;;;;5.13;1.35;;;13.80;1.00;;;;;;4955838;28;20048;-38
2023/01/14 04:21:29;;;;;;;9.00;1.60;;;13.80;1.00;;;;;;4955805;29;20063;-38
2023/01/14 04:23:55;;;;;;;10.25;1.67;;;13.80;1.00;;;;;;4955707;28;20054;-37
2023/01/14 04:26:22;;;;;;;7.20;1.33;;;13.80;1.00;;;;;;4955965;29;20047;-37
2023/01/14 04:28:49;;;;;;;9.43;2.42;;;13.80;1.00;;;;;;4955834;28;20114;-38
2023/01/14 04:31:15;;;;;;;11.27;2.67;;;13.80;1.00;;;;;;4956493;28;20554;-37
2023/01/14 04:33:42;;;;;;;8.07;1.40;;;13.80;1.00;;;;;;4965514;28;20051;-38
2023/01/14 04:36:09;;;;;;;6.10;1.63;;;13.80;1.00;;;;;;4963535;28;20043;-38
2023/01/14 04:38:36;;;;;;;7.90;1.55;;;13.80;1.00;;;;;;4966271;28;20047;-38
2023/01/14 04:41:02;;;;;;;11.13;1.92;;;13.80;1.00;;;;;;4966721;28;20135;-37
2023/01/14 04:43:29;;;;;;;4.78;1.20;;;13.80;1.00;;;;;;4975297;28;20039;-37
2023/01/14 04:45:56;;;;;;;5.53;1.13;;;13.80;1.00;;;;;;4975454;28;20102;-37
2023/01/14 04:48:24;;;;;;;6.35;1.60;;;13.80;1.00;;;;;;4975440;28;20051;-37
2023/01/14 04:50:51;;;;;;;7.68;1.70;;;13.80;1.00;;;;;;4975234;28;20097;-37
2023/01/14 04:53:23;;;;;;;7.63;1.60;;;13.80;1.00;;;;;;4975091;28;20057;-37
2023/01/14 04:55:55;;;;;;;6.72;2.17;;;13.80;1.00;;;;;;4975333;28;20039;-37
2023/01/14 04:58:22;;;;;;;8.88;1.80;;;13.80;1.00;;;;;;4975258;28;20070;-38
2023/01/14 05:00:50;;;;;;;10.85;1.73;;;13.80;1.00;;;;;;4973963;28;20525;-38
2023/01/14 05:03:17;;;;;;;6.10;1.75;;;13.80;1.00;;;;;;4974921;28;20041;-37
2023/01/14 05:05:45;;;;;;;3.58;1.05;;;13.70;1.00;;;;;;4975136;28;20126;-37
2023/01/14 05:08:13;;;;;;;7.65;1.95;;;13.70;1.00;;;;;;4974900;28;20517;-37
2023/01/14 05:10:41;;;;;;;8.48;1.58;;;13.70;1.00;;;;;;4975056;28;20050;-38
2023/01/14 05:13:08;;;;;;;5.07;1.27;;;13.70;1.00;;;;;;4974825;28;20042;-37
2023/01/14 05:15:38;;;;;;;4.78;1.67;;;13.70;1.00;;;;;;4974924;28;20053;-38
2023/01/14 05:18:06;;;;;;;10.70;1.92;;;13.70;1.00;;;;;;4974745;28;20074;-37
2023/01/14 05:20:33;;;;;;;9.80;1.45;;;13.70;1.00;;;;;;4975069;28;20398;-37
2023/01/14 05:23:02;;;;;;;4.78;1.15;;;13.70;1.00;;;;;;4974558;28;20431;-38
2023/01/14 05:25:31;;;;;;;6.88;1.08;;;13.70;1.00;;;;;;4974820;28;20046;-37
2023/01/14 05:28:04;;;;;;;8.15;1.63;;;13.70;1.00;;;;;;4974713;28;20046;-38
2023/01/14 05:30:32;;;;;;;6.93;1.55;;;13.70;1.00;;;;;;4974669;28;20123;-37
2023/01/14 05:32:58;;;;;;;10.52;1.42;;;13.70;1.00;;;;;;4974470;28;20043;-38
2023/01/14 05:35:25;;;;;;;5.68;1.20;;;13.70;1.00;;;;;;4974906;28;20051;-37
2023/01/14 05:37:52;;;;;;;9.98;2.60;;;13.70;1.00;;;;;;4974454;28;20043;-37
2023/01/14 05:40:19;;;;;;;8.25;1.42;;;13.70;1.00;;;;;;4974528;28;20051;-38
2023/01/14 05:48:30;;;;;;;8.88;2.15;;;13.70;1.00;;;;;;4952254;28;20506;-37
2023/01/14 05:50:58;;;;;;;7.75;1.48;;;13.70;1.00;;;;;;4972974;28;20741;-37
2023/01/14 05:53:29;;;;;;;8.98;1.40;;;13.70;1.00;;;;;;4973927;28;20047;-37
2023/01/14 05:55:57;;;;;;;4.68;1.30;;;13.70;1.00;;;;;;4974282;28;20047;-38
2023/01/14 05:58:24;;;;;;;8.13;1.55;;;13.70;1.00;;;;;;4974117;28;20039;-38
2023/01/14 06:06:33;;;;;;;6.75;1.27;;;13.70;1.00;;;;;;4974013;28;20042;-36
2023/01/14 06:09:03;;;;;;;10.68;1.60;;;13.70;1.00;;;;;;4974000;28;20051;-36
2023/01/14 06:11:33;;;;;;;7.90;1.70;;;13.70;1.00;;;;;;4973974;28;20047;-36
2023/01/14 06:14:01;;;;;;;7.22;1.55;;;13.70;1.00;;;;;;4973724;28;20057;-37
2023/01/14 06:16:38;;;;;;;7.53;1.63;;;13.70;1.00;;;;;;4973873;28;20066;-37
2023/01/14 06:19:13;;;;;;;4.75;1.63;;;13.70;1.00;;;;;;4973777;28;20078;-37
2023/01/14 06:21:40;;;;;;;8.57;1.50;;;13.70;1.00;;;;;;4973673;28;20062;-37
2023/01/14 06:24:08;;;;;;;8.00;2.22;;;13.70;1.00;;;;;;4973476;28;20042;-37
2023/01/14 06:26:35;;;;;;;9.73;1.80;;;13.80;1.00;;;;;;4973557;28;20561;-37
2023/01/14 06:29:09;;;;;;;6.75;1.25;;;13.80;1.00;;;;;;4972471;28;20047;-37
2023/01/14 06:31:38;;;;;;;6.00;1.20;;;13.90;1.00;;;;;;4973584;28;20054;-37
2023/01/14 06:34:05;;;;;;;5.43;1.27;;;14.00;1.00;;;;;;4973290;28;20058;-36
2023/01/14 06:36:34;;;;;;;8.82;1.67;;;14.10;1.00;;;;;;4973230;28;20549;-38
2023/01/14 06:39:01;;;;;;;5.88;1.63;;;14.30;1.00;;;;;;4973487;28;20042;-36
2023/01/14 06:41:28;;;;;;;8.75;2.35;;;14.40;1.00;;;;;;4973397;28;20130;-36
2023/01/14 06:43:55;;;;;;;8.20;1.50;;;14.40;1.00;;;;;;4973122;28;20043;-37
2023/01/14 06:46:21;;;;;;;5.35;1.30;;;14.60;1.00;;;;;;4973382;28;20043;-36
2023/01/14 06:48:48;;;;;;;10.90;2.63;;;14.60;1.00;;;;;;4973380;28;20421;-36
2023/01/14 06:51:21;;;;;;;5.70;1.25;;;14.70;1.00;;;;;;4973264;28;20082;-36
2023/01/14 06:53:51;;;;;;;8.35;2.03;;;14.70;1.00;;;;;;4970941;28;20053;-37
2023/01/14 06:56:26;;;;;;;8.10;2.42;;;14.80;1.00;;;;;;4973432;28;20411;-36
2023/01/14 06:58:58;;;;;;;9.70;2.10;;;14.80;1.00;;;;;;4972528;28;20462;-37
2023/01/14 07:01:29;;;;;;;7.00;2.25;;;14.90;1.00;;;;;;4972378;28;20076;-36
2023/01/14 07:04:12;;;;;;;6.80;1.75;;;14.90;1.00;;;;;;4972854;28;20584;-37
2023/01/14 07:07:07;;;;;;;9.77;2.70;;;14.90;1.00;;;;;;4973046;28;20039;-37
2023/01/14 07:09:46;;;;;;;8.57;1.58;;;15.00;1.00;;;;;;4973075;28;20077;-36
2023/01/14 07:12:25;;;;;;;8.35;1.63;;;15.00;1.00;;;;;;4972933;28;20487;-37
2023/01/14 07:14:53;;;;;;;11.60;1.73;;;15.00;1.00;;;;;;4973069;28;20058;-37
2023/01/14 07:17:40;;;;;;;8.02;1.40;;;15.00;1.00;;;;;;4972757;28;20105;-37
2023/01/14 07:20:09;;;;;;;8.30;1.30;;;15.00;1.00;;;;;;4972977;28;20053;-37
2023/01/14 07:22:36;;;;;;;8.30;2.53;;;15.00;1.00;;;;;;4972805;28;20043;-37
2023/01/14 07:25:05;;;;;;;8.95;1.85;;;15.00;1.00;;;;;;4972837;28;20499;-37
2023/01/14 07:27:33;;;;;;;9.15;2.95;;;15.00;1.00;;;;;;4972911;28;20046;-38
2023/01/14 07:30:06;;;;;;;4.03;1.13;;;15.00;1.00;;;;;;4973004;28;20125;-36
2023/01/14 07:32:35;;;;;;;11.45;3.15;;;15.00;1.00;;;;;;4972779;28;20046;-36
2023/01/14 07:35:09;;;;;;;8.95;2.17;;;15.00;1.00;;;;;;4972714;28;20105;-36
2023/01/14 07:38:06;;;;;;;10.88;2.35;;;15.00;1.00;;;;;;4972780;28;20055;-37
2023/01/14 07:40:38;;;;;;;5.75;2.15;;;15.00;1.00;;;;;;4972914;28;20047;-36
2023/01/14 07:43:07;;;;;;;4.75;1.55;;;15.00;1.00;;;;;;4972524;28;20039;-36
2023/01/14 07:45:34;;;;;;;7.60;1.90;;;15.00;1.00;;;;;;4972798;28;20054;-37
2023/01/14 07:48:01;;;;;;;9.05;1.92;;;15.00;1.00;;;;;;4972509;28;20462;-37
2023/01/14 07:50:28;;;;;;;11.82;3.33;;;15.00;1.00;;;;;;4972768;28;20122;-36
2023/01/14 07:52:57;;;;;;;6.75;1.48;;;15.00;1.00;;;;;;4972338;28;20134;-36
2023/01/14 07:55:25;;;;;;;6.88;2.03;;;15.00;1.00;;;;;;4972689;28;20039;-36
2023/01/14 07:57:52;;;;;;;5.50;1.73;;;14.90;1.00;;;;;;4972574;28;20039;-36
2023/01/14 08:00:20;;;;;;;7.82;2.33;;;14.90;1.00;;;;;;4972518;28;20043;-36
2023/01/14 08:02:47;;;;;;;9.55;1.60;;;14.90;1.00;;;;;;4972300;28;20131;-37
2023/01/14 08:05:14;;;;;;;6.38;1.40;;;14.90;1.00;;;;;;4974449;28;20101;-37
2023/01/14 08:07:41;;;;;;;8.25;2.10;;;14.90;1.00;;;;;;4976108;28;20051;-37
2023/01/14 08:10:09;;;;;;;5.45;1.90;;;14.90;1.00;;;;;;4976210;28;20046;-37
2023/01/14 08:12:36;;;;;;;6.90;1.65;;;14.80;1.00;;;;;;4975943;28;20078;-37
2023/01/14 08:15:05;;;;;;;4.45;1.50;;;14.80;1.00;;;;;;4975862;28;20049;-37
2023/01/14 08:17:32;;;;;;;6.43;1.55;;;14.80;1.00;;;;;;4975755;28;20097;-37
2023/01/14 08:19:59;;;;;;;6.25;1.30;;;14.80;1.00;;;;;;4975924;28;20097;-37
2023/01/14 08:22:28;;;;;;;13.57;2.15;;;14.80;1.00;;;;;;4975660;28;20042;-37
2023/01/14 08:24:56;;;;;;;8.20;1.55;;;14.70;1.00;;;;;;4967660;28;20137;-37
2023/01/14 08:27:23;;;;;;;10.95;1.98;;;14.70;1.00;;;;;;4956793;28;20031;-37
2023/01/14 08:29:50;;;;;;;4.22;1.05;;;14.70;1.00;;;;;;4951153;28;20122;-37
2023/01/14 08:32:17;;;;;;;6.35;1.85;;;14.70;1.00;;;;;;4960582;28;20043;-37
2023/01/14 08:34:44;;;;;;;8.63;1.83;;;14.70;1.00;;;;;;4967878;28;20109;-37
2023/01/14 08:37:11;;;;;;;6.03;2.15;;;14.80;1.00;;;;;;4965651;28;20047;-36
2023/01/14 08:39:37;;;;;;;14.10;2.08;;;14.80;1.00;;;;;;4955840;28;20044;-37
2023/01/14 08:42:04;;;;;;;8.13;1.40;;;14.90;1.00;;;;;;4958675;28;20043;-37
2023/01/14 08:44:31;;;;;;;7.85;1.67;;;14.90;1.00;;;;;;4950743;28;20110;-37
2023/01/14 08:46:58;;;;;;;7.78;1.67;;;15.00;1.00;;;;;;4972417;28;20090;-37
2023/01/14 08:49:25;;;;;;;5.32;1.58;;;15.10;1.00;;;;;;4957316;28;20094;-37
2023/01/14 08:51:54;;;;;;;5.38;2.47;;;15.20;1.00;;;;;;4955958;28;20058;-37
2023/01/14 08:54:21;;;;;;;13.00;1.95;;;15.30;1.00;;;;;;4974950;28;20125;-36
2023/01/14 08:56:48;;;;;;;6.85;1.95;;;15.40;1.00;;;;;;4966976;28;20126;-36
2023/01/14 08:59:15;;;;;;;7.45;1.65;;;15.50;1.00;;;;;;4954276;28;20122;-36
2023/01/14 09:01:42;;;;;;;6.20;1.40;;;15.60;1.00;;;;;;4954929;28;20054;-37
2023/01/14 09:04:21;;;;;;;8.73;1.42;;;15.70;1.00;;;;;;4955607;28;20139;-37
2023/01/14 09:18:05;;;;;;;4.47;1.75;;;16.20;1.00;;;;;;4955024;28;20051;-36
2023/01/14 09:20:34;;;;;;;6.43;1.50;;;16.30;1.00;;;;;;4955379;28;20043;-36
2023/01/14 09:23:03;;;;;;;4.95;1.67;;;16.40;1.00;;;;;;4955232;28;20039;-36
2023/01/14 09:25:30;;;;;;;6.50;1.60;;;16.50;1.00;;;;;;4955513;28;20483;-37
2023/01/14 09:27:57;;;;;;;4.30;0.90;;;16.60;1.00;;;;;;4955320;28;20039;-40
2023/01/14 09:30:24;;;;;;;9.13;1.83;;;16.60;1.00;;;;;;4955158;28;20484;-37
2023/01/14 09:32:51;;;;;;;4.80;1.67;;;16.60;1.00;;;;;;4955183;28;20047;-36
2023/01/14 09:35:18;;;;;;;3.55;1.25;;;16.70;1.00;;;;;;4955202;29;20543;-37
2023/01/14 09:37:45;;;;;;;4.07;1.25;;;16.70;1.00;;;;;;4955280;28;20134;-36
2023/01/14 09:40:13;;;;;;;4.30;0.90;;;16.70;1.00;;;;;;4954906;28;20066;-41
2023/01/14 09:42:47;;;;;;;4.82;0.93;;;16.70;1.00;;;;;;4954793;29;20051;-37
2023/01/14 09:45:18;;;;;;;5.07;1.27;;;16.70;1.00;;;;;;4961397;28;20064;-37
2023/01/14 09:47:45;;;;;;;4.95;1.23;;;16.70;1.00;;;;;;4968886;28;20047;-36
2023/01/14 09:50:16;;;;;;;4.35;0.90;;;16.80;1.00;;;;;;4954928;29;20126;-36
2023/01/14 09:53:01;;;;;;;4.47;1.02;;;16.70;1.00;;;;;;4954827;29;20071;-37
2023/01/14 09:55:40;;;;;;;7.28;1.25;;;16.70;1.00;;;;;;4954840;29;20047;-37
2023/01/14 09:58:32;;;;;;;3.13;0.98;;;16.70;1.00;;;;;;4954997;29;20110;-37
2023/01/14 10:01:17;;;;;;;2.78;0.80;;;16.70;1.00;;;;;;4954537;29;20479;-36
2023/01/14 10:04:02;;;;;;;3.63;0.77;;;16.70;1.00;;;;;;4954484;29;20058;-37
2023/01/14 10:06:29;;;;;;;4.03;1.50;;;16.70;1.00;;;;;;4953216;28;20125;-37
2023/01/14 10:09:11;;;;;;;8.65;1.30;;;16.60;1.00;;;;;;4953502;28;20102;-37
2023/01/14 10:11:42;;;;;;;7.03;1.27;;;16.60;1.00;;;;;;4970713;28;20050;-37
2023/01/14 10:14:11;;;;;;;5.25;1.08;;;16.60;1.00;;;;;;4971880;28;20035;-35
2023/01/14 10:16:42;;;;;;;9.05;2.33;;;16.60;1.00;;;;;;4959375;28;20039;-36
2023/01/14 10:19:25;;;;;;;11.10;1.23;;;16.50;1.00;;;;;;4935415;29;20411;-36
2023/01/14 10:21:58;;;;;;;4.63;0.98;;;16.50;1.00;;;;;;4935371;29;20044;-35
2023/01/14 10:24:30;;;;;;;3.65;0.98;;;16.40;1.00;;;;;;4934998;29;20424;-36
2023/01/14 10:27:19;;;;;;;3.85;1.00;;;16.40;1.00;;;;;;4934745;29;20055;-36
2023/01/14 10:30:24;;;;;;;6.53;0.70;;;16.40;1.00;;;;;;4935154;29;20408;-36
2023/01/14 10:32:54;;;;;;;9.88;0.90;;;16.30;1.00;;;;;;4934955;29;20551;-37
2023/01/14 10:35:39;;;;;;;1.83;0.57;;;16.30;1.00;;;;;;4934890;29;20051;-36
2023/01/14 10:38:17;;;;;;;4.25;0.88;;;16.20;1.00;;;;;;4935037;29;20042;-36
2023/01/14 10:40:48;;;;;;;4.32;0.88;;;16.20;1.00;;;;;;5004000;23;20052;-38
2023/01/14 10:43:38;;;;;;;5.40;1.10;;;16.20;1.00;;;;;;5015028;28;20025;-39
2023/01/14 10:46:08;;;;;;;3.65;0.50;;;16.10;1.00;;;;;;5025440;28;20116;-38
2023/01/14 10:48:50;;;;;;;10.05;0.75;;;16.10;1.00;;;;;;5027170;28;20042;-38
2023/01/14 10:51:35;;;;;;;3.45;0.57;;;16.10;1.00;;;;;;4993737;28;20117;-38
2023/01/14 10:54:09;;;;;;;4.28;0.65;;;16.00;1.00;;;;;;5007389;28;20513;-38
2023/01/14 10:56:37;;;;;;;4.95;1.30;;;16.00;1.00;;;;;;4992593;28;20042;-38
2023/01/14 10:59:33;;;;;;;4.30;0.98;;;16.00;1.00;;;;;;4992316;28;20101;-38
2023/01/14 11:02:00;;;;;;;6.82;1.30;;;15.90;1.00;;;;;;5002675;28;20434;-38
2023/01/14 11:04:47;;;;;;;7.03;0.85;;;15.90;1.00;;;;;;5012000;28;20045;-38
2023/01/14 11:07:22;;;;;;;2.65;1.20;;;15.90;1.00;;;;;;5012223;28;20115;-39
2023/01/14 11:09:49;;;;;;;4.00;0.80;;;15.90;1.00;;;;;;5011983;28;20484;-38
2023/01/14 11:12:27;;;;;;;4.97;0.95;;;15.90;1.00;;;;;;5011888;28;20080;-38
2023/01/14 11:14:54;;;;;;;2.97;0.80;;;15.80;1.00;;;;;;5011909;28;20133;-38
2023/01/14 11:17:25;;;;;;;4.85;0.50;;;15.80;1.00;;;;;;5009913;28;20683;-38
2023/01/14 11:20:23;;;;;;;2.60;1.17;;;15.80;1.00;;;;;;4989352;28;20078;-38
2023/01/14 11:23:01;;;;;;;2.05;0.40;;;15.80;1.00;;;;;;5001161;28;20049;-39
2023/01/14 11:25:28;;;;;;;3.70;0.68;;;15.80;1.00;;;;;;5011891;28;20033;-39
2023/01/14 11:27:58;;;;;;;5.28;0.88;;;15.70;1.00;;;;;;5005533;28;20043;-39
2023/01/14 11:30:25;;;;;;;2.58;0.65;;;15.70;1.00;;;;;;5003441;28;20088;-39
2023/01/14 11:32:55;;;;;;;2.20;0.95;;;15.70;1.00;;;;;;5000323;28;20502;-39
2023/01/14 11:35:30;;;;;;;5.22;1.00;;;15.70;1.00;;;;;;5003121;28;20038;-38
2023/01/14 11:37:57;;;;;;;5.28;0.60;;;15.60;1.00;;;;;;4992269;28;20053;-39
2023/01/14 11:41:28;;;;;;;2.15;0.47;;;15.60;1.00;;;;;;4986847;28;20049;-39
2023/01/14 11:43:16;;;;;;;6.20;1.10;;;15.60;1.00;;;;;;4989520;28;20088;-39
2023/01/14 11:45:42;;;;;;;2.83;0.60;;;15.60;1.00;;;;;;4998551;28;20062;-39
2023/01/14 11:48:24;;;;;;;2.47;0.80;;;15.60;1.00;;;;;;4989607;28;20517;-39
2023/01/14 11:50:59;;;;;;;2.75;0.90;;;15.50;1.00;;;;;;5001309;28;20052;-38
2023/01/14 11:53:48;;;;;;;2.53;0.90;;;15.50;1.00;;;;;;4996531;28;20050;-39
2023/01/14 11:56:19;;;;;;;6.30;0.93;;;15.50;1.00;;;;;;5000930;28;20050;-38
2023/01/14 11:58:46;;;;;;;5.65;0.82;;;15.50;1.00;;;;;;4994344;28;20566;-38
2023/01/14 12:01:37;;;;;;;2.88;0.90;;;15.50;1.00;;;;;;4997005;28;20122;-38
2023/01/14 12:04:20;;;;;;;8.38;1.17;;;15.40;1.00;;;;;;5006879;28;20568;-38
2023/01/14 12:06:57;;;;;;;5.60;1.55;;;15.40;1.00;;;;;;5003974;28;20038;-38
2023/01/14 12:09:38;;;;;;;3.25;0.82;;;15.40;1.00;;;;;;4994163;28;20046;-38
2023/01/14 12:12:12;;;;;;;8.63;1.00;;;15.40;1.00;;;;;;4989438;28;20030;-38
2023/01/14 12:17:34;;;;;;;5.13;1.02;;;15.40;1.00;;;;;;4997967;28;20046;-38
2023/01/14 12:20:04;;;;;;;1.92;0.80;;;15.40;1.00;;;;;;4996732;28;20043;-37
2023/01/14 12:23:00;;;;;;;5.82;0.98;;;15.40;1.00;;;;;;4998027;28;20487;-37
2023/01/14 12:25:38;;;;;;;3.40;0.80;;;15.40;1.00;;;;;;4988057;28;20117;-38
2023/01/14 12:28:09;;;;;;;2.50;0.88;;;15.50;1.00;;;;;;4995643;28;20092;-38
2023/01/14 12:31:17;;;;;;;5.75;1.60;;;15.60;1.00;;;;;;5003032;28;20118;-38
2023/01/14 12:33:49;;;;;;;7.78;1.33;;;15.70;1.00;;;;;;4975883;28;20561;-38
2023/01/14 12:36:37;;;;;;;4.95;1.42;;;15.80;1.00;;;;;;5002423;28;20056;-37
2023/01/14 12:47:46;;;;;;;8.75;1.75;;;16.10;1.00;;;;;;4998781;28;20473;-38
2023/01/14 12:50:15;;;;;;;5.15;1.08;;;16.20;1.00;;;;;;5002511;28;20106;-38
2023/01/14 12:52:51;;;;;;;8.48;1.42;;;16.20;1.00;;;;;;4989896;28;20041;-38
2023/01/14 12:55:35;;;;;;;9.75;1.45;;;16.30;1.00;;;;;;5002685;28;20039;-38
2023/01/14 12:58:05;;;;;;;6.28;1.27;;;16.30;1.00;;;;;;4994459;28;20038;-38
2023/01/14 13:00:36;;;;;;;5.80;1.95;;;16.30;1.00;;;;;;5005029;28;20443;-38
2023/01/14 13:03:07;;;;;;;7.75;2.05;;;16.40;1.00;;;;;;4991581;28;20165;-38
2023/01/14 13:05:39;;;;;;;12.25;2.10;;;16.40;1.00;;;;;;4988380;28;20042;-38
2023/01/14 13:08:33;;;;;;;5.20;0.90;;;16.40;1.00;;;;;;4987600;28;20113;-38
2023/01/14 13:11:06;;;;;;;11.00;1.65;;;16.40;1.00;;;;;;4982702;28;20050;-38
2023/01/14 13:13:34;;;;;;;4.97;1.23;;;16.40;1.00;;;;;;4995358;28;20557;-38
2023/01/14 13:16:03;;;;;;;6.90;1.40;;;16.40;1.00;;;;;;4994175;28;20039;-38
2023/01/14 13:18:36;;;;;;;7.13;1.45;;;16.40;1.00;;;;;;4985982;28;20122;-38
2023/01/14 13:21:08;;;;;;;3.67;0.90;;;16.30;1.00;;;;;;4985309;28;20039;-38
2023/01/14 13:23:44;;;;;;;3.90;1.40;;;16.30;1.00;;;;;;4993965;28;20039;-38
2023/01/14 13:26:39;;;;;;;5.15;2.10;;;16.30;1.00;;;;;;4994096;28;20042;-38
2023/01/14 13:29:15;;;;;;;11.55;2.78;;;16.30;1.00;;;;;;4991368;28;20105;-38
2023/01/14 13:31:43;;;;;;;8.40;1.95;;;16.30;1.00;;;;;;5007925;28;20046;-38
2023/01/14 13:34:21;;;;;;;4.80;1.70;;;16.30;1.00;;;;;;4991769;28;20068;-38
2023/01/14 13:37:08;;;;;;;7.75;1.88;;;16.20;1.00;;;;;;4987671;28;20125;-38
2023/01/14 13:39:35;;;;;;;5.97;1.17;;;16.30;1.00;;;;;;4988669;28;20114;-37
2023/01/14 13:42:16;;;;;;;5.72;1.70;;;16.20;1.00;;;;;;4995053;28;20057;-37
2023/01/14 13:44:48;;;;;;;6.13;1.48;;;16.20;1.00;;;;;;4997840;28;20053;-37
2023/01/14 13:47:25;;;;;;;6.43;0.83;;;16.20;1.00;;;;;;4993927;28;20057;-37
2023/01/14 13:50:01;;;;;;;7.72;1.23;;;16.10;1.00;;;;;;5002883;28;20766;-38
2023/01/14 13:52:31;;;;;;;8.18;1.55;;;16.20;1.00;;;;;;5013191;28;20050;-38
2023/01/14 13:55:22;;;;;;;4.70;1.25;;;16.10;1.00;;;;;;5013045;28;20402;-38
2023/01/14 13:57:52;;;;;;;10.43;2.58;;;16.10;1.00;;;;;;5013230;28;20042;-38
2023/01/14 14:00:19;;;;;;;9.48;1.65;;;16.10;1.00;;;;;;5012868;28;20112;-38
2023/01/14 14:02:53;;;;;;;4.50;1.30;;;16.10;1.00;;;;;;5011203;28;20100;-38
2023/01/14 14:05:28;;;;;;;10.07;1.55;;;16.00;1.00;;;;;;5012969;28;20168;-38